Logan, Alabama
Current Conditions -  °F | °C
As of 10:55 PM on Saturday 22 Nov 2014 (Local Time) from KCMD Reporting Station
Overcast Overcast  
Wind Chill: 57°   Ceiling: 2600
Heat Index: 57°   Visibility: 10mi
Dew Point: 44°   Wind: 7mph
Humidity: 62%   Direction: 130°SE
Pressure: 30.11"   Gusts: NA
Location:  34.13°N, 87°W
Report Text: KCMD 230455Z AUTO 13006KT 10SM OVC026 14/07 A3011 RMK AO2 T01400067
Loading
Personal Weather Stations






























Interactive Weather Map New forecast layout! Learn more

10-Day Weather Forecast

Advertisements
Track Severe Weather on mobile